sensor_id;sensor_type;location;lat;lon;timestamp;temperature;humidity
69418;DHT22;56610;48.872;2.400;2022-10-16T00:01:38;19.20;99.90
69418;DHT22;56610;48.872;2.400;2022-10-16T00:04:03;19.20;99.90
69418;DHT22;56610;48.872;2.400;2022-10-16T00:06:30;19.30;99.90
69418;DHT22;56610;48.872;2.400;2022-10-16T00:08:56;19.50;99.90
69418;DHT22;56610;48.872;2.400;2022-10-16T00:11:28;19.60;99.90
69418;DHT22;56610;48.872;2.400;2022-10-16T00:14:00;19.70;99.90
69418;DHT22;56610;48.872;2.400;2022-10-16T00:16:27;19.80;99.90
69418;DHT22;56610;48.872;2.400;2022-10-16T00:18:53;20.00;99.90
69418;DHT22;56610;48.872;2.400;2022-10-16T00:21:22;20.00;99.90
69418;DHT22;56610;48.872;2.400;2022-10-16T00:23:59;20.00;99.90
69418;DHT22;56610;48.872;2.400;2022-10-16T00:26:26;20.10;99.90
69418;DHT22;56610;48.872;2.400;2022-10-16T00:28:52;20.10;99.90
69418;DHT22;56610;48.872;2.400;2022-10-16T00:31:20;20.10;99.90
69418;DHT22;56610;48.872;2.400;2022-10-16T00:33:45;20.10;99.90
69418;DHT22;56610;48.872;2.400;2022-10-16T00:36:13;20.10;99.90
69418;DHT22;56610;48.872;2.400;2022-10-16T00:38:39;20.00;99.90
69418;DHT22;56610;48.872;2.400;2022-10-16T00:41:06;20.10;99.90
69418;DHT22;56610;48.872;2.400;2022-10-16T00:43:53;20.00;99.90
69418;DHT22;56610;48.872;2.400;2022-10-16T00:46:27;20.00;99.90
69418;DHT22;56610;48.872;2.400;2022-10-16T00:49:14;19.90;99.90
69418;DHT22;56610;48.872;2.400;2022-10-16T00:51:48;19.80;99.90
69418;DHT22;56610;48.872;2.400;2022-10-16T00:54:24;19.90;99.90
69418;DHT22;56610;48.872;2.400;2022-10-16T00:56:50;19.90;99.90
69418;DHT22;56610;48.872;2.400;2022-10-16T00:59:25;19.90;99.90
69418;DHT22;56610;48.872;2.400;2022-10-16T01:01:52;19.90;99.90
69418;DHT22;56610;48.872;2.400;2022-10-16T01:04:18;19.80;99.90
69418;DHT22;56610;48.872;2.400;2022-10-16T01:15:26;19.80;99.90
69418;DHT22;56610;48.872;2.400;2022-10-16T01:18:05;19.70;99.90
69418;DHT22;56610;48.872;2.400;2022-10-16T01:20:40;19.70;99.90
69418;DHT22;56610;48.872;2.400;2022-10-16T01:27:04;19.70;99.90
69418;DHT22;56610;48.872;2.400;2022-10-16T01:29:56;19.60;99.90
69418;DHT22;56610;48.872;2.400;2022-10-16T01:35:03;19.50;99.90
69418;DHT22;56610;48.872;2.400;2022-10-16T01:40:47;19.50;99.90
69418;DHT22;56610;48.872;2.400;2022-10-16T01:43:19;19.30;99.90
69418;DHT22;56610;48.872;2.400;2022-10-16T01:45:46;19.30;99.90
69418;DHT22;56610;48.872;2.400;2022-10-16T01:48:16;19.40;99.90
69418;DHT22;56610;48.872;2.400;2022-10-16T01:50:44;19.40;99.90
69418;DHT22;56610;48.872;2.400;2022-10-16T01:53:15;19.50;99.90
69418;DHT22;56610;48.872;2.400;2022-10-16T01:55:45;19.60;99.90
69418;DHT22;56610;48.872;2.400;2022-10-16T01:58:13;19.70;99.90
69418;DHT22;56610;48.872;2.400;2022-10-16T02:00:42;19.70;99.90
69418;DHT22;56610;48.872;2.400;2022-10-16T02:03:11;19.70;99.90
69418;DHT22;56610;48.872;2.400;2022-10-16T02:08:08;19.80;99.90
69418;DHT22;56610;48.872;2.400;2022-10-16T02:10:35;19.80;99.90
69418;DHT22;56610;48.872;2.400;2022-10-16T02:15:50;19.80;99.90
69418;DHT22;56610;48.872;2.400;2022-10-16T02:18:16;19.70;99.90
69418;DHT22;56610;48.872;2.400;2022-10-16T02:20:55;19.70;99.90
69418;DHT22;56610;48.872;2.400;2022-10-16T02:23:36;19.60;99.90
69418;DHT22;56610;48.872;2.400;2022-10-16T02:26:07;19.50;99.90
69418;DHT22;56610;48.872;2.400;2022-10-16T02:28:45;19.40;99.90
69418;DHT22;56610;48.872;2.400;2022-10-16T02:31:14;19.50;99.90
69418;DHT22;56610;48.872;2.400;2022-10-16T02:33:42;19.60;99.90
69418;DHT22;56610;48.872;2.400;2022-10-16T02:36:09;19.70;99.90
69418;DHT22;56610;48.872;2.400;2022-10-16T02:38:55;19.60;99.90
69418;DHT22;56610;48.872;2.400;2022-10-16T02:41:22;19.60;99.90
69418;DHT22;56610;48.872;2.400;2022-10-16T02:43:48;19.60;99.90
69418;DHT22;56610;48.872;2.400;2022-10-16T02:46:15;19.70;99.90
69418;DHT22;56610;48.872;2.400;2022-10-16T02:48:40;19.60;99.90
69418;DHT22;56610;48.872;2.400;2022-10-16T02:51:06;19.50;99.90
69418;DHT22;56610;48.872;2.400;2022-10-16T02:53:31;19.50;99.90
69418;DHT22;56610;48.872;2.400;2022-10-16T02:55:57;19.60;99.90
69418;DHT22;56610;48.872;2.400;2022-10-16T02:58:22;19.60;99.90
69418;DHT22;56610;48.872;2.400;2022-10-16T03:00:48;19.70;99.90
69418;DHT22;56610;48.872;2.400;2022-10-16T03:03:13;19.70;99.90
69418;DHT22;56610;48.872;2.400;2022-10-16T03:05:39;19.70;99.90
69418;DHT22;56610;48.872;2.400;2022-10-16T03:08:05;19.70;99.90
69418;DHT22;56610;48.872;2.400;2022-10-16T03:10:31;19.60;99.90
69418;DHT22;56610;48.872;2.400;2022-10-16T03:12:56;19.70;99.90
69418;DHT22;56610;48.872;2.400;2022-10-16T03:15:22;19.60;99.90
69418;DHT22;56610;48.872;2.400;2022-10-16T03:17:48;19.70;99.90
69418;DHT22;56610;48.872;2.400;2022-10-16T03:20:13;19.70;99.90
69418;DHT22;56610;48.872;2.400;2022-10-16T03:22:39;19.70;99.90
69418;DHT22;56610;48.872;2.400;2022-10-16T03:25:05;19.70;99.90
69418;DHT22;56610;48.872;2.400;2022-10-16T03:27:30;19.70;99.90
69418;DHT22;56610;48.872;2.400;2022-10-16T03:29:56;19.80;99.90
69418;DHT22;56610;48.872;2.400;2022-10-16T03:32:21;19.80;99.90
69418;DHT22;56610;48.872;2.400;2022-10-16T03:34:47;19.80;99.90
69418;DHT22;56610;48.872;2.400;2022-10-16T03:37:13;19.80;99.90
69418;DHT22;56610;48.872;2.400;2022-10-16T03:39:38;19.80;99.90
69418;DHT22;56610;48.872;2.400;2022-10-16T03:42:04;19.80;99.90
69418;DHT22;56610;48.872;2.400;2022-10-16T03:44:30;19.80;99.90
69418;DHT22;56610;48.872;2.400;2022-10-16T03:46:55;19.80;99.90
69418;DHT22;56610;48.872;2.400;2022-10-16T03:49:21;19.80;99.90
69418;DHT22;56610;48.872;2.400;2022-10-16T03:51:46;19.80;99.90
69418;DHT22;56610;48.872;2.400;2022-10-16T03:54:12;19.90;99.90
69418;DHT22;56610;48.872;2.400;2022-10-16T03:56:38;19.70;99.90
69418;DHT22;56610;48.872;2.400;2022-10-16T03:59:04;19.50;99.90
69418;DHT22;56610;48.872;2.400;2022-10-16T04:01:29;19.50;99.90
69418;DHT22;56610;48.872;2.400;2022-10-16T04:03:55;19.40;99.90
69418;DHT22;56610;48.872;2.400;2022-10-16T04:06:20;19.10;99.90
69418;DHT22;56610;48.872;2.400;2022-10-16T04:08:46;18.90;99.90
69418;DHT22;56610;48.872;2.400;2022-10-16T04:11:12;19.00;99.90
69418;DHT22;56610;48.872;2.400;2022-10-16T04:13:37;19.00;99.90
69418;DHT22;56610;48.872;2.400;2022-10-16T04:16:03;19.10;99.90
69418;DHT22;56610;48.872;2.400;2022-10-16T04:18:29;19.20;99.90
69418;DHT22;56610;48.872;2.400;2022-10-16T04:20:54;19.20;99.90
69418;DHT22;56610;48.872;2.400;2022-10-16T04:23:20;19.10;99.90
69418;DHT22;56610;48.872;2.400;2022-10-16T04:25:46;19.00;99.90
69418;DHT22;56610;48.872;2.400;2022-10-16T04:28:12;18.90;99.90
69418;DHT22;56610;48.872;2.400;2022-10-16T04:30:38;18.90;99.90
69418;DHT22;56610;48.872;2.400;2022-10-16T04:33:04;18.90;99.90
69418;DHT22;56610;48.872;2.400;2022-10-16T04:35:29;18.80;99.90
69418;DHT22;56610;48.872;2.400;2022-10-16T04:37:57;18.70;99.90
69418;DHT22;56610;48.872;2.400;2022-10-16T04:40:23;18.70;99.90
69418;DHT22;56610;48.872;2.400;2022-10-16T04:42:49;18.80;99.90
69418;DHT22;56610;48.872;2.400;2022-10-16T04:45:14;18.70;99.90
69418;DHT22;56610;48.872;2.400;2022-10-16T04:47:40;18.70;99.90
69418;DHT22;56610;48.872;2.400;2022-10-16T04:50:06;18.60;99.90
69418;DHT22;56610;48.872;2.400;2022-10-16T04:52:32;18.70;99.90
69418;DHT22;56610;48.872;2.400;2022-10-16T04:54:58;18.70;99.90
69418;DHT22;56610;48.872;2.400;2022-10-16T04:57:27;18.60;99.90
69418;DHT22;56610;48.872;2.400;2022-10-16T04:59:53;18.50;99.90
69418;DHT22;56610;48.872;2.400;2022-10-16T05:02:18;18.40;99.90
69418;DHT22;56610;48.872;2.400;2022-10-16T05:04:44;18.50;99.90
69418;DHT22;56610;48.872;2.400;2022-10-16T05:07:10;18.50;99.90
69418;DHT22;56610;48.872;2.400;2022-10-16T05:09:35;18.50;99.90
69418;DHT22;56610;48.872;2.400;2022-10-16T05:12:01;18.50;99.90
69418;DHT22;56610;48.872;2.400;2022-10-16T05:14:28;18.60;99.90
69418;DHT22;56610;48.872;2.400;2022-10-16T05:16:54;18.70;99.90
69418;DHT22;56610;48.872;2.400;2022-10-16T05:19:20;18.80;99.90
69418;DHT22;56610;48.872;2.400;2022-10-16T05:21:45;19.00;99.90
69418;DHT22;56610;48.872;2.400;2022-10-16T05:24:11;19.00;99.90
69418;DHT22;56610;48.872;2.400;2022-10-16T05:26:36;19.00;99.90
69418;DHT22;56610;48.872;2.400;2022-10-16T05:29:02;19.00;99.90
69418;DHT22;56610;48.872;2.400;2022-10-16T05:31:28;19.00;99.90
69418;DHT22;56610;48.872;2.400;2022-10-16T05:33:58;19.00;99.90
69418;DHT22;56610;48.872;2.400;2022-10-16T05:36:24;19.10;99.90
69418;DHT22;56610;48.872;2.400;2022-10-16T05:38:51;19.10;99.90
69418;DHT22;56610;48.872;2.400;2022-10-16T05:41:16;19.00;99.90
69418;DHT22;56610;48.872;2.400;2022-10-16T05:43:47;19.20;99.90
69418;DHT22;56610;48.872;2.400;2022-10-16T05:46:12;19.20;99.90
69418;DHT22;56610;48.872;2.400;2022-10-16T05:48:38;19.20;99.90
69418;DHT22;56610;48.872;2.400;2022-10-16T05:51:06;19.10;99.90
69418;DHT22;56610;48.872;2.400;2022-10-16T05:53:34;19.20;99.90
69418;DHT22;56610;48.872;2.400;2022-10-16T05:56:00;19.30;99.90
69418;DHT22;56610;48.872;2.400;2022-10-16T05:58:35;19.40;99.90
69418;DHT22;56610;48.872;2.400;2022-10-16T06:01:12;19.40;99.90
69418;DHT22;56610;48.872;2.400;2022-10-16T06:03:38;19.50;99.90
69418;DHT22;56610;48.872;2.400;2022-10-16T06:06:15;19.40;99.90
69418;DHT22;56610;48.872;2.400;2022-10-16T06:08:41;19.40;99.90
69418;DHT22;56610;48.872;2.400;2022-10-16T06:11:09;19.50;99.90
69418;DHT22;56610;48.872;2.400;2022-10-16T06:13:35;19.60;99.90
69418;DHT22;56610;48.872;2.400;2022-10-16T06:16:01;19.70;99.90
69418;DHT22;56610;48.872;2.400;2022-10-16T06:18:28;19.80;99.90
69418;DHT22;56610;48.872;2.400;2022-10-16T06:20:54;19.80;99.90
69418;DHT22;56610;48.872;2.400;2022-10-16T06:23:20;19.70;99.90
69418;DHT22;56610;48.872;2.400;2022-10-16T06:25:46;19.70;99.90
69418;DHT22;56610;48.872;2.400;2022-10-16T06:28:13;19.70;99.90
69418;DHT22;56610;48.872;2.400;2022-10-16T06:30:39;19.60;99.90
69418;DHT22;56610;48.872;2.400;2022-10-16T06:33:04;19.40;99.90
69418;DHT22;56610;48.872;2.400;2022-10-16T06:35:30;19.40;99.90
69418;DHT22;56610;48.872;2.400;2022-10-16T06:37:57;19.40;99.90
69418;DHT22;56610;48.872;2.400;2022-10-16T06:40:23;19.20;99.90
69418;DHT22;56610;48.872;2.400;2022-10-16T06:42:48;19.20;99.90
69418;DHT22;56610;48.872;2.400;2022-10-16T06:45:14;19.20;99.90
69418;DHT22;56610;48.872;2.400;2022-10-16T06:47:39;19.20;99.90
69418;DHT22;56610;48.872;2.400;2022-10-16T06:50:05;19.30;99.90
69418;DHT22;56610;48.872;2.400;2022-10-16T06:52:33;19.30;99.90
69418;DHT22;56610;48.872;2.400;2022-10-16T06:54:59;19.40;99.90
69418;DHT22;56610;48.872;2.400;2022-10-16T06:57:46;19.30;99.90
69418;DHT22;56610;48.872;2.400;2022-10-16T07:00:12;19.40;99.90
69418;DHT22;56610;48.872;2.400;2022-10-16T07:02:37;19.40;99.90
69418;DHT22;56610;48.872;2.400;2022-10-16T07:05:03;19.40;99.90
69418;DHT22;56610;48.872;2.400;2022-10-16T07:07:29;19.40;99.90
69418;DHT22;56610;48.872;2.400;2022-10-16T07:09:55;19.50;99.90
69418;DHT22;56610;48.872;2.400;2022-10-16T07:12:20;19.50;99.90
69418;DHT22;56610;48.872;2.400;2022-10-16T07:14:46;19.40;99.90
69418;DHT22;56610;48.872;2.400;2022-10-16T07:17:11;19.50;99.90
69418;DHT22;56610;48.872;2.400;2022-10-16T07:19:37;19.60;99.90
69418;DHT22;56610;48.872;2.400;2022-10-16T07:22:03;19.60;99.90
69418;DHT22;56610;48.872;2.400;2022-10-16T07:24:28;19.70;99.90
69418;DHT22;56610;48.872;2.400;2022-10-16T07:26:54;19.70;99.90
69418;DHT22;56610;48.872;2.400;2022-10-16T07:29:21;19.70;99.90
69418;DHT22;56610;48.872;2.400;2022-10-16T07:31:48;19.70;99.90
69418;DHT22;56610;48.872;2.400;2022-10-16T07:34:15;19.60;99.90
69418;DHT22;56610;48.872;2.400;2022-10-16T07:36:41;19.60;99.90
69418;DHT22;56610;48.872;2.400;2022-10-16T07:39:07;19.60;99.90
69418;DHT22;56610;48.872;2.400;2022-10-16T07:41:33;19.60;99.90
69418;DHT22;56610;48.872;2.400;2022-10-16T07:44:02;19.50;99.90
69418;DHT22;56610;48.872;2.400;2022-10-16T07:46:28;19.50;99.90
69418;DHT22;56610;48.872;2.400;2022-10-16T07:48:54;19.70;99.90
69418;DHT22;56610;48.872;2.400;2022-10-16T07:51:22;19.80;99.90
69418;DHT22;56610;48.872;2.400;2022-10-16T07:53:48;20.00;99.90
69418;DHT22;56610;48.872;2.400;2022-10-16T07:56:15;20.10;99.90
69418;DHT22;56610;48.872;2.400;2022-10-16T07:58:41;20.20;99.90
69418;DHT22;56610;48.872;2.400;2022-10-16T08:01:09;20.20;99.90
69418;DHT22;56610;48.872;2.400;2022-10-16T08:03:35;20.20;99.90
69418;DHT22;56610;48.872;2.400;2022-10-16T08:06:02;20.10;99.90
69418;DHT22;56610;48.872;2.400;2022-10-16T08:08:28;20.20;99.90
69418;DHT22;56610;48.872;2.400;2022-10-16T08:10:54;20.10;99.90
69418;DHT22;56610;48.872;2.400;2022-10-16T08:13:20;20.10;99.90
69418;DHT22;56610;48.872;2.400;2022-10-16T08:15:46;20.20;99.90
69418;DHT22;56610;48.872;2.400;2022-10-16T08:18:15;20.10;99.90
69418;DHT22;56610;48.872;2.400;2022-10-16T08:20:42;20.10;99.90
69418;DHT22;56610;48.872;2.400;2022-10-16T08:23:09;20.30;99.90
69418;DHT22;56610;48.872;2.400;2022-10-16T08:25:35;20.30;99.90
69418;DHT22;56610;48.872;2.400;2022-10-16T08:28:04;20.50;99.90
69418;DHT22;56610;48.872;2.400;2022-10-16T08:30:30;20.50;99.90
69418;DHT22;56610;48.872;2.400;2022-10-16T08:32:55;20.50;99.90
69418;DHT22;56610;48.872;2.400;2022-10-16T08:35:21;20.70;99.90
69418;DHT22;56610;48.872;2.400;2022-10-16T08:37:46;20.80;99.90
69418;DHT22;56610;48.872;2.400;2022-10-16T08:40:28;20.80;99.90
69418;DHT22;56610;48.872;2.400;2022-10-16T08:51:01;21.00;99.90
69418;DHT22;56610;48.872;2.400;2022-10-16T08:53:31;21.00;99.90
69418;DHT22;56610;48.872;2.400;2022-10-16T08:55:58;20.90;99.90
69418;DHT22;56610;48.872;2.400;2022-10-16T08:58:29;21.00;99.90
69418;DHT22;56610;48.872;2.400;2022-10-16T09:01:00;21.00;99.90
69418;DHT22;56610;48.872;2.400;2022-10-16T09:03:46;21.20;99.90
69418;DHT22;56610;48.872;2.400;2022-10-16T09:06:35;21.20;99.90
69418;DHT22;56610;48.872;2.400;2022-10-16T09:09:49;21.30;99.90
69418;DHT22;56610;48.872;2.400;2022-10-16T09:14:58;21.40;99.90
69418;DHT22;56610;48.872;2.400;2022-10-16T09:23:14;21.30;99.90
69418;DHT22;56610;48.872;2.400;2022-10-16T09:25:44;21.20;99.90
69418;DHT22;56610;48.872;2.400;2022-10-16T09:28:10;21.20;99.90
69418;DHT22;56610;48.872;2.400;2022-10-16T09:30:36;21.20;99.90
69418;DHT22;56610;48.872;2.400;2022-10-16T09:33:03;21.20;99.90
69418;DHT22;56610;48.872;2.400;2022-10-16T09:35:39;21.10;99.90
69418;DHT22;56610;48.872;2.400;2022-10-16T09:38:05;21.10;99.90
69418;DHT22;56610;48.872;2.400;2022-10-16T09:40:34;21.20;99.90
69418;DHT22;56610;48.872;2.400;2022-10-16T09:45:38;21.30;99.90
69418;DHT22;56610;48.872;2.400;2022-10-16T09:48:11;21.50;99.90
69418;DHT22;56610;48.872;2.400;2022-10-16T09:50:37;21.60;99.90
69418;DHT22;56610;48.872;2.400;2022-10-16T09:53:14;21.70;99.90
69418;DHT22;56610;48.872;2.400;2022-10-16T09:55:50;21.60;99.90
69418;DHT22;56610;48.872;2.400;2022-10-16T09:58:16;21.60;99.90
69418;DHT22;56610;48.872;2.400;2022-10-16T10:00:48;21.60;99.90
69418;DHT22;56610;48.872;2.400;2022-10-16T10:03:35;21.60;99.90
69418;DHT22;56610;48.872;2.400;2022-10-16T10:06:25;21.70;99.90
69418;DHT22;56610;48.872;2.400;2022-10-16T10:09:04;21.90;99.90
69418;DHT22;56610;48.872;2.400;2022-10-16T10:12:20;22.10;99.90
69418;DHT22;56610;48.872;2.400;2022-10-16T10:14:48;22.20;99.90
69418;DHT22;56610;48.872;2.400;2022-10-16T10:17:25;22.30;99.90
69418;DHT22;56610;48.872;2.400;2022-10-16T10:19:57;22.30;99.90
69418;DHT22;56610;48.872;2.400;2022-10-16T10:22:40;22.30;99.90
69418;DHT22;56610;48.872;2.400;2022-10-16T10:27:59;22.40;99.90
69418;DHT22;56610;48.872;2.400;2022-10-16T10:30:37;22.60;99.90
69418;DHT22;56610;48.872;2.400;2022-10-16T10:33:09;22.80;99.90
69418;DHT22;56610;48.872;2.400;2022-10-16T10:36:01;22.80;99.90
69418;DHT22;56610;48.872;2.400;2022-10-16T10:38:31;22.70;99.90
69418;DHT22;56610;48.872;2.400;2022-10-16T10:41:24;22.70;99.90
69418;DHT22;56610;48.872;2.400;2022-10-16T10:57:58;22.70;99.90
69418;DHT22;56610;48.872;2.400;2022-10-16T11:00:55;22.70;99.90
69418;DHT22;56610;48.872;2.400;2022-10-16T11:06:19;22.90;99.90
69418;DHT22;56610;48.872;2.400;2022-10-16T11:09:07;22.90;99.90
69418;DHT22;56610;48.872;2.400;2022-10-16T11:11:41;22.90;99.90
69418;DHT22;56610;48.872;2.400;2022-10-16T11:14:12;22.80;99.90
69418;DHT22;56610;48.872;2.400;2022-10-16T11:19:50;22.70;99.90
69418;DHT22;56610;48.872;2.400;2022-10-16T11:27:50;22.60;99.90
69418;DHT22;56610;48.872;2.400;2022-10-16T11:30:22;22.70;99.90
69418;DHT22;56610;48.872;2.400;2022-10-16T11:35:43;22.90;99.90
69418;DHT22;56610;48.872;2.400;2022-10-16T11:40:48;23.00;99.90
69418;DHT22;56610;48.872;2.400;2022-10-16T11:43:37;23.00;99.90
69418;DHT22;56610;48.872;2.400;2022-10-16T11:46:16;23.10;99.90
69418;DHT22;56610;48.872;2.400;2022-10-16T11:48:50;23.10;99.90
69418;DHT22;56610;48.872;2.400;2022-10-16T11:51:23;23.20;99.90
69418;DHT22;56610;48.872;2.400;2022-10-16T11:54:07;23.20;99.90
69418;DHT22;56610;48.872;2.400;2022-10-16T11:56:38;23.20;99.90
69418;DHT22;56610;48.872;2.400;2022-10-16T11:59:20;23.30;99.90
69418;DHT22;56610;48.872;2.400;2022-10-16T12:07:14;23.50;99.90
69418;DHT22;56610;48.872;2.400;2022-10-16T12:09:40;23.60;99.90
69418;DHT22;56610;48.872;2.400;2022-10-16T12:12:26;23.60;99.90
69418;DHT22;56610;48.872;2.400;2022-10-16T12:15:17;23.60;99.90
69418;DHT22;56610;48.872;2.400;2022-10-16T12:17:43;23.50;99.90
69418;DHT22;56610;48.872;2.400;2022-10-16T12:22:51;23.40;99.90
69418;DHT22;56610;48.872;2.400;2022-10-16T12:25:31;23.30;99.90
69418;DHT22;56610;48.872;2.400;2022-10-16T12:28:26;23.40;99.90
69418;DHT22;56610;48.872;2.400;2022-10-16T12:30:59;23.50;99.90
69418;DHT22;56610;48.872;2.400;2022-10-16T12:33:28;23.60;99.90
69418;DHT22;56610;48.872;2.400;2022-10-16T12:35:55;23.60;99.90
69418;DHT22;56610;48.872;2.400;2022-10-16T12:38:28;23.60;99.90
69418;DHT22;56610;48.872;2.400;2022-10-16T12:41:08;23.80;99.90
69418;DHT22;56610;48.872;2.400;2022-10-16T12:46:06;23.70;99.90
69418;DHT22;56610;48.872;2.400;2022-10-16T12:48:45;23.80;99.90
69418;DHT22;56610;48.872;2.400;2022-10-16T12:51:25;23.80;99.90
69418;DHT22;56610;48.872;2.400;2022-10-16T12:54:19;23.80;99.90
69418;DHT22;56610;48.872;2.400;2022-10-16T12:56:56;23.90;99.90
69418;DHT22;56610;48.872;2.400;2022-10-16T13:04:44;23.70;99.90
69418;DHT22;56610;48.872;2.400;2022-10-16T13:07:42;23.70;99.90
69418;DHT22;56610;48.872;2.400;2022-10-16T13:18:29;24.00;99.90
69418;DHT22;56610;48.872;2.400;2022-10-16T13:29:13;24.40;99.90
69418;DHT22;56610;48.872;2.400;2022-10-16T13:31:40;24.50;99.90
69418;DHT22;56610;48.872;2.400;2022-10-16T13:34:17;24.70;99.90
69418;DHT22;56610;48.872;2.400;2022-10-16T13:36:46;24.70;99.90
69418;DHT22;56610;48.872;2.400;2022-10-16T13:39:26;24.80;99.90
69418;DHT22;56610;48.872;2.400;2022-10-16T13:42:09;25.00;99.90
69418;DHT22;56610;48.872;2.400;2022-10-16T13:44:44;25.20;99.90
69418;DHT22;56610;48.872;2.400;2022-10-16T13:47:29;25.20;99.90
69418;DHT22;56610;48.872;2.400;2022-10-16T13:50:12;25.10;99.90
69418;DHT22;56610;48.872;2.400;2022-10-16T13:52:38;25.10;99.90
69418;DHT22;56610;48.872;2.400;2022-10-16T13:55:15;25.10;99.90
69418;DHT22;56610;48.872;2.400;2022-10-16T13:57:41;25.10;99.90
69418;DHT22;56610;48.872;2.400;2022-10-16T14:00:25;25.20;99.90
69418;DHT22;56610;48.872;2.400;2022-10-16T14:03:04;25.20;99.90
69418;DHT22;56610;48.872;2.400;2022-10-16T14:05:30;25.20;99.90
69418;DHT22;56610;48.872;2.400;2022-10-16T14:07:56;25.20;99.90
69418;DHT22;56610;48.872;2.400;2022-10-16T14:10:26;25.40;99.90
69418;DHT22;56610;48.872;2.400;2022-10-16T14:13:01;25.20;99.90
69418;DHT22;56610;48.872;2.400;2022-10-16T14:15:27;25.00;99.90
69418;DHT22;56610;48.872;2.400;2022-10-16T14:17:54;24.90;99.90
69418;DHT22;56610;48.872;2.400;2022-10-16T14:20:26;24.70;99.90
69418;DHT22;56610;48.872;2.400;2022-10-16T14:23:04;24.50;99.90
69418;DHT22;56610;48.872;2.400;2022-10-16T14:25:31;24.50;99.90
69418;DHT22;56610;48.872;2.400;2022-10-16T14:27:58;24.50;99.90
69418;DHT22;56610;48.872;2.400;2022-10-16T14:30:25;24.50;99.90
69418;DHT22;56610;48.872;2.400;2022-10-16T14:32:56;24.60;99.90
69418;DHT22;56610;48.872;2.400;2022-10-16T14:37:56;24.80;99.90
69418;DHT22;56610;48.872;2.400;2022-10-16T14:40:31;24.90;99.90
69418;DHT22;56610;48.872;2.400;2022-10-16T14:42:57;25.00;99.90
69418;DHT22;56610;48.872;2.400;2022-10-16T14:45:33;25.20;99.90
69418;DHT22;56610;48.872;2.400;2022-10-16T14:48:02;25.30;99.90
69418;DHT22;56610;48.872;2.400;2022-10-16T14:50:29;25.40;99.90
69418;DHT22;56610;48.872;2.400;2022-10-16T14:52:55;25.20;99.90
69418;DHT22;56610;48.872;2.400;2022-10-16T14:55:21;25.00;99.90
69418;DHT22;56610;48.872;2.400;2022-10-16T14:57:47;24.90;99.90
69418;DHT22;56610;48.872;2.400;2022-10-16T15:00:20;24.80;99.90
69418;DHT22;56610;48.872;2.400;2022-10-16T15:02:47;24.80;99.90
69418;DHT22;56610;48.872;2.400;2022-10-16T15:07:44;24.80;99.90
69418;DHT22;56610;48.872;2.400;2022-10-16T15:10:14;24.80;99.90
69418;DHT22;56610;48.872;2.400;2022-10-16T15:12:40;24.70;99.90
69418;DHT22;56610;48.872;2.400;2022-10-16T15:15:32;24.80;99.90
69418;DHT22;56610;48.872;2.400;2022-10-16T15:17:58;24.80;99.90
69418;DHT22;56610;48.872;2.400;2022-10-16T15:20:31;24.50;99.90
69418;DHT22;56610;48.872;2.400;2022-10-16T15:23:14;24.50;99.90
69418;DHT22;56610;48.872;2.400;2022-10-16T15:25:49;24.50;99.90
69418;DHT22;56610;48.872;2.400;2022-10-16T15:28:16;24.50;99.90
69418;DHT22;56610;48.872;2.400;2022-10-16T15:30:43;24.40;99.90
69418;DHT22;56610;48.872;2.400;2022-10-16T15:33:26;24.40;99.90
69418;DHT22;56610;48.872;2.400;2022-10-16T15:35:59;24.40;99.90
69418;DHT22;56610;48.872;2.400;2022-10-16T15:38:30;24.50;99.90
69418;DHT22;56610;48.872;2.400;2022-10-16T15:40:56;24.50;99.90
69418;DHT22;56610;48.872;2.400;2022-10-16T15:43:22;24.60;99.90
69418;DHT22;56610;48.872;2.400;2022-10-16T15:46:05;24.50;99.90
69418;DHT22;56610;48.872;2.400;2022-10-16T15:48:31;24.40;99.90
69418;DHT22;56610;48.872;2.400;2022-10-16T15:50:57;24.40;99.90
69418;DHT22;56610;48.872;2.400;2022-10-16T15:53:23;24.40;99.90
69418;DHT22;56610;48.872;2.400;2022-10-16T15:55:49;24.30;99.90
69418;DHT22;56610;48.872;2.400;2022-10-16T15:58:15;24.10;99.90
69418;DHT22;56610;48.872;2.400;2022-10-16T16:00:40;24.00;99.90
69418;DHT22;56610;48.872;2.400;2022-10-16T16:03:06;23.80;99.90
69418;DHT22;56610;48.872;2.400;2022-10-16T16:05:32;23.80;99.90
69418;DHT22;56610;48.872;2.400;2022-10-16T16:07:58;23.90;99.90
69418;DHT22;56610;48.872;2.400;2022-10-16T16:10:24;23.90;99.90
69418;DHT22;56610;48.872;2.400;2022-10-16T16:12:50;23.80;99.90
69418;DHT22;56610;48.872;2.400;2022-10-16T16:15:19;23.80;99.90
69418;DHT22;56610;48.872;2.400;2022-10-16T16:17:45;23.80;99.90
69418;DHT22;56610;48.872;2.400;2022-10-16T16:20:11;23.70;99.90
69418;DHT22;56610;48.872;2.400;2022-10-16T16:22:36;23.70;99.90
69418;DHT22;56610;48.872;2.400;2022-10-16T16:25:03;23.70;99.90
69418;DHT22;56610;48.872;2.400;2022-10-16T16:27:29;23.60;99.90
69418;DHT22;56610;48.872;2.400;2022-10-16T16:29:58;23.60;99.90
69418;DHT22;56610;48.872;2.400;2022-10-16T16:32:23;23.60;99.90
69418;DHT22;56610;48.872;2.400;2022-10-16T16:34:49;23.60;99.90
69418;DHT22;56610;48.872;2.400;2022-10-16T16:37:15;23.60;99.90
69418;DHT22;56610;48.872;2.400;2022-10-16T16:39:40;23.50;99.90
69418;DHT22;56610;48.872;2.400;2022-10-16T16:42:06;23.50;99.90
69418;DHT22;56610;48.872;2.400;2022-10-16T16:44:33;23.50;99.90
69418;DHT22;56610;48.872;2.400;2022-10-16T16:46:58;23.40;99.90
69418;DHT22;56610;48.872;2.400;2022-10-16T16:49:24;23.40;99.90
69418;DHT22;56610;48.872;2.400;2022-10-16T16:51:50;23.30;99.90
69418;DHT22;56610;48.872;2.400;2022-10-16T16:54:15;23.30;99.90
69418;DHT22;56610;48.872;2.400;2022-10-16T16:56:41;23.30;99.90
69418;DHT22;56610;48.872;2.400;2022-10-16T16:59:21;23.20;99.90
69418;DHT22;56610;48.872;2.400;2022-10-16T17:01:48;23.00;99.90
69418;DHT22;56610;48.872;2.400;2022-10-16T17:04:14;23.00;99.90
69418;DHT22;56610;48.872;2.400;2022-10-16T17:06:41;22.90;99.90
69418;DHT22;56610;48.872;2.400;2022-10-16T17:09:07;22.90;99.90
69418;DHT22;56610;48.872;2.400;2022-10-16T17:11:33;22.80;99.90
69418;DHT22;56610;48.872;2.400;2022-10-16T17:13:59;22.70;99.90
69418;DHT22;56610;48.872;2.400;2022-10-16T17:16:32;22.80;99.90
69418;DHT22;56610;48.872;2.400;2022-10-16T17:19:03;22.80;99.90
69418;DHT22;56610;48.872;2.400;2022-10-16T17:21:29;22.90;99.90
69418;DHT22;56610;48.872;2.400;2022-10-16T17:23:55;22.90;99.90
69418;DHT22;56610;48.872;2.400;2022-10-16T17:26:22;22.80;99.90
69418;DHT22;56610;48.872;2.400;2022-10-16T17:28:51;22.80;99.90
69418;DHT22;56610;48.872;2.400;2022-10-16T17:31:24;22.70;99.90
69418;DHT22;56610;48.872;2.400;2022-10-16T17:33:50;22.70;99.90
69418;DHT22;56610;48.872;2.400;2022-10-16T17:36:17;22.70;99.90
69418;DHT22;56610;48.872;2.400;2022-10-16T17:38:42;22.70;99.90
69418;DHT22;56610;48.872;2.400;2022-10-16T17:41:18;22.60;99.90